NCAR-RAP Real-Time Weather Data

Output produced by METARs form (21 May 2019  10:57 UTC)
found at http://weather.rap.ucar.edu/surface/
 
RJSN 211000Z 25008KT 9999 FEW025 SCT120 BKN/// 17/13 Q1005
RJSN 210900Z 26009KT 9999 FEW025 BKN/// 18/09 Q1004
RJSN 210800Z 26010KT 9999 FEW025 SCT080 BKN/// 19/11 Q1004
RJSN 210700Z 22007KT 9999 FEW025 BKN080 19/13 Q1004
RJSN 210600Z 21009KT 180V240 9999 FEW025 BKN080 19/13 Q1004
RJSN 210500Z 19008KT 150V230 9999 FEW020 BKN080 19/14 Q1004
RJSN 210400Z 20011KT 9999 FEW020 BKN080 17/14 Q1004
RJSN 210300Z 21009KT 9999 -SHRA FEW015 SCT030 BKN070 17/14 Q1004
RJSN 210200Z 23012KT 8000 -SHRA FEW005 SCT008 BKN015 17/17 Q1004
RJSN 210128Z 23010KT 8000 -SHRA FEW005 SCT008 BKN020 18/17 Q1003 RMK 1ST005 4CU008 6CU020 A2964
RJSN 210117Z 22008KT 190V250 5000 SHRA BR FEW005 BKN008 BKN015 18/18 Q1003 RMK 1ST005 5CU008 7CU015 A2964
RJSN 210100Z 19010KT 8000 -SHRA FEW005 BKN008 BKN015 18/18 Q1003
RJSN 210048Z 19010KT 6000 -SHRA FEW005 BKN008 BKN020 18/18 Q1003 RMK 2ST005 5ST008 7CU020 A2962
RJSN 210028Z 19009KT 5000 SHRA BR FEW005 SCT008 BKN020 18/18 Q1002 RMK 1ST005 3ST008 7CU020 A2961
RJSN 210000Z 19009KT 4000 SHRA BR FEW004 SCT006 BKN025 18/18 Q1003
RJSN 202317Z 19008KT 130V210 4000 SHRA BR FEW005 SCT020 BKN030 18/18 Q1002 RMK 1ST005 3CU020 7CU030 A2961
RJSN 202300Z 19005KT 160V220 3000 SHRA BR FEW010 SCT020 BKN030 18/18 Q1002
RJSN 202240Z 24007KT 3000 SHRA BR FEW020 BKN030 BKN040 18/18 Q1002 RMK 2CU020 5CU030 7CU040 A2961
RJSN 202232Z 22008KT 4000 SHRA BR FEW020 SCT030 BKN040 18/18 Q1002 RMK 1CU020 3CU030 7CU040 A2960
RJSN 202227Z 22008KT 4000 -SHRA BR FEW020 SCT030 BKN040 18/18 Q1002 RMK 1CU020 3CU030 7CU040 A2960
RJSN 202220Z 21009KT 5000 -SHRA BR SCT030 BKN040 18/18 Q1002 RMK 3CU030 7CU040 A2959
RJSN 202211Z 21011KT 4000 SHRA BR SCT030 BKN040 18/18 Q1001 RMK 3CU030 7CU040 A2959 P/RR
RJSN 202200Z 21012KT 8000 -SHRA FEW030 SCT035 BKN040 19/18 Q1001
RJSN 202110Z 17010KT 9999 -SHRA FEW030 BKN050 BKN080 18/17 Q1000 RMK 1CU030 5CU050 7AC080 A2955
RJSN 201200Z 14014KT 9999 FEW050 BKN140 BKN/// 23/11 Q1005
RJSN 201100Z 14014KT 9999 FEW050 SCT140 BKN/// 23/11 Q1005
RJSN 201043Z 14015G26KT 9999 FEW050 SCT120 BKN150 23/11 Q1005 RMK 1SC050 3AC120 5AC150 A2969
RJSN 201000Z 14015KT 9999 FEW050 SCT120 BKN150 24/10 Q1005
RJSN 200903Z 14015G25KT 9999 FEW040 SCT100 BKN150 25/09 Q1005 RMK 1CU040 3AC100 6AC150 A2969
RJSN 200900Z 14015KT 9999 FEW040 SCT100 BKN150 25/09 Q1005
RJSN 200805Z 14015G26KT 9999 FEW040 SCT120 BKN/// 26/09 Q1005 RMK 1CU040 3AC120 A2969
RJSN 200800Z 14014KT 9999 FEW040 SCT120 BKN/// 26/09 Q1005
RJSN 200700Z 13015G27KT 9999 FEW040 SCT150 BKN/// 27/08 Q1005
RJSN 200600Z 13018G29KT 9999 FEW040 SCT150 BKN/// 27/08 Q1005
RJSN 200507Z 13015G25KT 9999 FEW050 BKN/// 28/08 Q1006 RMK 1CU050 A2971
RJSN 200500Z 13017KT 9999 FEW050 BKN/// 28/08 Q1006
RJSN 200401Z 14017G27KT 9999 FEW050 SCT/// 29/08 Q1007 RMK 1CU050 A2974
RJSN 200400Z 14018KT 9999 FEW050 SCT/// 29/08 Q1006
RJSN 200315Z 14015G26KT 9999 FEW050 SCT/// 28/09 Q1008 RMK 1CU050 A2977
RJSN 200300Z 13014KT 9999 FEW050 SCT/// 27/09 Q1008
RJSN 200226Z 15015G25KT 110V170 9999 FEW050 SCT/// 27/08 Q1009 RMK 1CU050 A2980
RJSN 200200Z 14013KT 9999 FEW050 SCT/// 27/09 Q1009
RJSN 200124Z 15016G27KT 9999 FEW050 SCT/// 26/10 Q1009 RMK 1CU050 A2982
RJSN 200100Z 15016KT 9999 FEW040 BKN/// 26/10 Q1010
RJSN 200000Z 15015KT 9999 FEW040 BKN/// 24/08 Q1010
RJSN 192300Z 14013KT 9999 FEW040 BKN/// 22/08 Q1011
RJSN 192200Z 15015KT CAVOK 21/08 Q1012
RJSN 192110Z 15013KT CAVOK 20/08 Q1013 RMK A2992
RJSN 191200Z 14011KT 9999 FEW050 SCT120 BKN/// 22/11 Q1016
RJSN 191100Z 15010KT 9999 FEW040 BKN/// 24/10 Q1016
RJSN 191000Z 14010KT 9999 FEW040 BKN/// 25/09 Q1015
RJSN 190907Z 14010KT 9999 FEW040 BKN/// 23/14 Q1015 RMK 1CU040 A2997
RJSN 190900Z 03003KT 280V090 9999 FEW040 BKN/// 22/15 Q1014
RJSN 190800Z 04009KT 9999 FEW050 BKN/// 22/16 Q1015
RJSN 190700Z 04010KT 9999 FEW070 BKN/// 23/16 Q1015
RJSN 190600Z 05014KT 9999 FEW050 SCT/// 23/16 Q1015
RJSN 190500Z 02013KT 9999 FEW050 23/16 Q1016
RJSN 190400Z 02010KT 9999 FEW040 23/14 Q1017
RJSN 190300Z 01009KT 9999 FEW050 23/15 Q1018
RJSN 190200Z 01007KT 9999 FEW050 24/13 Q1019
RJSN 190118Z 02010KT CAVOK 24/10 Q1019 RMK A3010
RJSN 190100Z 13007KT 090V170 CAVOK 25/09 Q1019
RJSN 190000Z 15010KT CAVOK 24/10 Q1019
RJSN 182300Z 16012KT CAVOK 22/10 Q1020